sensor_id;sensor_type;location;lat;lon;timestamp;P1;durP1;ratioP1;P2;durP2;ratioP2
18867;SDS011;9563;49.240;9.088;2022-09-27T00:00:35;1.63;;;0.83;;
18867;SDS011;9563;49.240;9.088;2022-09-27T00:03:02;1.10;;;0.80;;
18867;SDS011;9563;49.240;9.088;2022-09-27T00:05:29;1.83;;;1.00;;
18867;SDS011;9563;49.240;9.088;2022-09-27T00:07:58;5.33;;;1.10;;
18867;SDS011;9563;49.240;9.088;2022-09-27T00:10:25;2.83;;;1.17;;
18867;SDS011;9563;49.240;9.088;2022-09-27T00:12:52;1.57;;;0.77;;
18867;SDS011;9563;49.240;9.088;2022-09-27T00:15:20;2.63;;;0.90;;
18867;SDS011;9563;49.240;9.088;2022-09-27T00:17:47;1.00;;;0.60;;
18867;SDS011;9563;49.240;9.088;2022-09-27T00:20:16;2.77;;;0.80;;
18867;SDS011;9563;49.240;9.088;2022-09-27T00:22:45;0.97;;;0.70;;
18867;SDS011;9563;49.240;9.088;2022-09-27T00:25:14;1.13;;;0.50;;
18867;SDS011;9563;49.240;9.088;2022-09-27T00:27:41;7.63;;;1.03;;
18867;SDS011;9563;49.240;9.088;2022-09-27T00:30:09;0.83;;;0.70;;
18867;SDS011;9563;49.240;9.088;2022-09-27T00:32:37;1.03;;;0.40;;
18867;SDS011;9563;49.240;9.088;2022-09-27T00:35:04;2.83;;;0.60;;
18867;SDS011;9563;49.240;9.088;2022-09-27T00:37:31;5.30;;;0.50;;
18867;SDS011;9563;49.240;9.088;2022-09-27T00:39:58;1.00;;;0.77;;
18867;SDS011;9563;49.240;9.088;2022-09-27T00:42:27;2.30;;;0.40;;
18867;SDS011;9563;49.240;9.088;2022-09-27T00:44:58;0.70;;;0.57;;
18867;SDS011;9563;49.240;9.088;2022-09-27T00:47:34;1.17;;;0.60;;
18867;SDS011;9563;49.240;9.088;2022-09-27T00:50:10;0.77;;;0.47;;
18867;SDS011;9563;49.240;9.088;2022-09-27T00:52:46;2.63;;;0.40;;
18867;SDS011;9563;49.240;9.088;2022-09-27T00:55:22;0.83;;;0.70;;
18867;SDS011;9563;49.240;9.088;2022-09-27T00:57:53;5.10;;;0.53;;
18867;SDS011;9563;49.240;9.088;2022-09-27T01:00:21;2.27;;;0.70;;
18867;SDS011;9563;49.240;9.088;2022-09-27T01:02:49;1.60;;;0.80;;
18867;SDS011;9563;49.240;9.088;2022-09-27T01:05:19;1.50;;;0.70;;
18867;SDS011;9563;49.240;9.088;2022-09-27T01:07:48;2.50;;;0.80;;
18867;SDS011;9563;49.240;9.088;2022-09-27T01:10:15;3.30;;;0.73;;
18867;SDS011;9563;49.240;9.088;2022-09-27T01:12:50;1.30;;;0.50;;
18867;SDS011;9563;49.240;9.088;2022-09-27T01:15:25;2.73;;;0.77;;
18867;SDS011;9563;49.240;9.088;2022-09-27T01:18:04;1.03;;;0.60;;
18867;SDS011;9563;49.240;9.088;2022-09-27T01:27:13;0.60;;;0.60;;
18867;SDS011;9563;49.240;9.088;2022-09-27T01:30:11;0.70;;;0.70;;
18867;SDS011;9563;49.240;9.088;2022-09-27T01:32:44;1.17;;;0.60;;
18867;SDS011;9563;49.240;9.088;2022-09-27T01:35:19;1.60;;;0.60;;
18867;SDS011;9563;49.240;9.088;2022-09-27T01:37:56;1.70;;;0.83;;
18867;SDS011;9563;49.240;9.088;2022-09-27T01:40:32;2.60;;;0.90;;
18867;SDS011;9563;49.240;9.088;2022-09-27T01:43:09;0.77;;;0.77;;
18867;SDS011;9563;49.240;9.088;2022-09-27T01:45:44;1.03;;;0.87;;
18867;SDS011;9563;49.240;9.088;2022-09-27T01:48:17;1.03;;;0.77;;
18867;SDS011;9563;49.240;9.088;2022-09-27T01:50:48;0.60;;;0.60;;
18867;SDS011;9563;49.240;9.088;2022-09-27T01:53:20;2.77;;;0.90;;
18867;SDS011;9563;49.240;9.088;2022-09-27T01:55:51;1.97;;;1.07;;
18867;SDS011;9563;49.240;9.088;2022-09-27T01:58:21;3.33;;;0.80;;
18867;SDS011;9563;49.240;9.088;2022-09-27T02:00:55;2.43;;;0.90;;
18867;SDS011;9563;49.240;9.088;2022-09-27T02:03:23;1.90;;;1.10;;
18867;SDS011;9563;49.240;9.088;2022-09-27T02:05:55;1.70;;;1.10;;
18867;SDS011;9563;49.240;9.088;2022-09-27T02:08:28;3.00;;;1.00;;
18867;SDS011;9563;49.240;9.088;2022-09-27T02:11:00;3.40;;;0.90;;
18867;SDS011;9563;49.240;9.088;2022-09-27T02:13:32;2.33;;;1.00;;
18867;SDS011;9563;49.240;9.088;2022-09-27T02:16:10;2.47;;;0.80;;
18867;SDS011;9563;49.240;9.088;2022-09-27T02:18:49;2.30;;;0.90;;
18867;SDS011;9563;49.240;9.088;2022-09-27T02:21:23;2.30;;;0.93;;
18867;SDS011;9563;49.240;9.088;2022-09-27T02:23:56;5.63;;;1.10;;
18867;SDS011;9563;49.240;9.088;2022-09-27T02:26:30;2.67;;;1.03;;
18867;SDS011;9563;49.240;9.088;2022-09-27T02:29:04;2.63;;;0.97;;
18867;SDS011;9563;49.240;9.088;2022-09-27T02:31:36;2.40;;;1.07;;
18867;SDS011;9563;49.240;9.088;2022-09-27T02:34:03;4.37;;;1.27;;
18867;SDS011;9563;49.240;9.088;2022-09-27T02:36:33;7.57;;;2.13;;
18867;SDS011;9563;49.240;9.088;2022-09-27T02:39:01;2.57;;;1.40;;
18867;SDS011;9563;49.240;9.088;2022-09-27T02:41:28;7.67;;;1.13;;
18867;SDS011;9563;49.240;9.088;2022-09-27T02:43:56;3.33;;;1.57;;
18867;SDS011;9563;49.240;9.088;2022-09-27T02:46:32;2.67;;;1.13;;
18867;SDS011;9563;49.240;9.088;2022-09-27T02:49:16;2.80;;;1.40;;
18867;SDS011;9563;49.240;9.088;2022-09-27T02:51:55;5.67;;;1.77;;
18867;SDS011;9563;49.240;9.088;2022-09-27T02:54:34;5.13;;;1.33;;
18867;SDS011;9563;49.240;9.088;2022-09-27T02:57:10;6.80;;;1.57;;
18867;SDS011;9563;49.240;9.088;2022-09-27T02:59:47;5.60;;;1.70;;
18867;SDS011;9563;49.240;9.088;2022-09-27T03:02:26;5.73;;;1.90;;
18867;SDS011;9563;49.240;9.088;2022-09-27T03:04:58;4.67;;;1.63;;
18867;SDS011;9563;49.240;9.088;2022-09-27T03:07:28;5.17;;;1.70;;
18867;SDS011;9563;49.240;9.088;2022-09-27T03:09:56;4.90;;;1.70;;
18867;SDS011;9563;49.240;9.088;2022-09-27T03:12:23;5.10;;;2.20;;
18867;SDS011;9563;49.240;9.088;2022-09-27T03:14:51;6.13;;;1.60;;
18867;SDS011;9563;49.240;9.088;2022-09-27T03:17:20;4.57;;;2.00;;
18867;SDS011;9563;49.240;9.088;2022-09-27T03:19:49;7.13;;;2.30;;
18867;SDS011;9563;49.240;9.088;2022-09-27T03:22:15;9.13;;;1.93;;
18867;SDS011;9563;49.240;9.088;2022-09-27T03:24:43;5.27;;;1.80;;
18867;SDS011;9563;49.240;9.088;2022-09-27T03:27:11;6.03;;;1.80;;
18867;SDS011;9563;49.240;9.088;2022-09-27T03:29:38;6.33;;;2.00;;
18867;SDS011;9563;49.240;9.088;2022-09-27T03:32:05;6.70;;;1.77;;
18867;SDS011;9563;49.240;9.088;2022-09-27T03:34:32;6.00;;;2.23;;
18867;SDS011;9563;49.240;9.088;2022-09-27T03:37:00;10.97;;;2.00;;
18867;SDS011;9563;49.240;9.088;2022-09-27T03:39:27;9.03;;;2.10;;
18867;SDS011;9563;49.240;9.088;2022-09-27T03:41:54;4.20;;;1.93;;
18867;SDS011;9563;49.240;9.088;2022-09-27T03:44:22;4.17;;;2.10;;
18867;SDS011;9563;49.240;9.088;2022-09-27T03:46:49;5.43;;;1.87;;
18867;SDS011;9563;49.240;9.088;2022-09-27T03:49:16;5.33;;;1.70;;
18867;SDS011;9563;49.240;9.088;2022-09-27T03:51:43;4.67;;;1.90;;
18867;SDS011;9563;49.240;9.088;2022-09-27T03:54:11;3.60;;;1.83;;
18867;SDS011;9563;49.240;9.088;2022-09-27T03:56:38;6.70;;;2.33;;
18867;SDS011;9563;49.240;9.088;2022-09-27T03:59:05;5.13;;;2.10;;
18867;SDS011;9563;49.240;9.088;2022-09-27T04:01:32;3.60;;;1.93;;
18867;SDS011;9563;49.240;9.088;2022-09-27T04:04:01;7.23;;;2.07;;
18867;SDS011;9563;49.240;9.088;2022-09-27T04:06:28;4.17;;;2.40;;
18867;SDS011;9563;49.240;9.088;2022-09-27T04:08:56;6.73;;;2.27;;
18867;SDS011;9563;49.240;9.088;2022-09-27T04:11:24;5.23;;;2.07;;
18867;SDS011;9563;49.240;9.088;2022-09-27T04:13:51;3.70;;;1.80;;
18867;SDS011;9563;49.240;9.088;2022-09-27T04:16:20;3.47;;;1.80;;
18867;SDS011;9563;49.240;9.088;2022-09-27T04:18:47;5.10;;;2.00;;
18867;SDS011;9563;49.240;9.088;2022-09-27T04:21:14;7.03;;;2.00;;
18867;SDS011;9563;49.240;9.088;2022-09-27T04:23:41;4.50;;;1.70;;
18867;SDS011;9563;49.240;9.088;2022-09-27T04:26:08;7.87;;;1.87;;
18867;SDS011;9563;49.240;9.088;2022-09-27T04:28:37;4.23;;;1.70;;
18867;SDS011;9563;49.240;9.088;2022-09-27T04:31:04;5.93;;;1.53;;
18867;SDS011;9563;49.240;9.088;2022-09-27T04:33:31;4.63;;;1.60;;
18867;SDS011;9563;49.240;9.088;2022-09-27T04:35:58;5.57;;;2.20;;
18867;SDS011;9563;49.240;9.088;2022-09-27T04:38:39;5.10;;;1.93;;
18867;SDS011;9563;49.240;9.088;2022-09-27T04:41:06;5.53;;;2.00;;
18867;SDS011;9563;49.240;9.088;2022-09-27T04:43:33;6.97;;;2.23;;
18867;SDS011;9563;49.240;9.088;2022-09-27T04:46:02;7.13;;;2.00;;
18867;SDS011;9563;49.240;9.088;2022-09-27T04:48:29;7.00;;;1.80;;
18867;SDS011;9563;49.240;9.088;2022-09-27T04:50:56;8.00;;;2.50;;
18867;SDS011;9563;49.240;9.088;2022-09-27T04:53:23;7.30;;;2.33;;
18867;SDS011;9563;49.240;9.088;2022-09-27T04:55:51;8.20;;;2.03;;
18867;SDS011;9563;49.240;9.088;2022-09-27T04:58:18;8.80;;;2.30;;
18867;SDS011;9563;49.240;9.088;2022-09-27T05:00:45;4.77;;;2.10;;
18867;SDS011;9563;49.240;9.088;2022-09-27T05:03:14;9.47;;;2.70;;
18867;SDS011;9563;49.240;9.088;2022-09-27T05:05:41;8.30;;;2.50;;
18867;SDS011;9563;49.240;9.088;2022-09-27T05:08:08;7.97;;;2.30;;
18867;SDS011;9563;49.240;9.088;2022-09-27T05:10:35;4.37;;;2.00;;
18867;SDS011;9563;49.240;9.088;2022-09-27T05:13:02;8.67;;;2.40;;
18867;SDS011;9563;49.240;9.088;2022-09-27T05:15:29;7.73;;;2.60;;
18867;SDS011;9563;49.240;9.088;2022-09-27T05:17:56;7.97;;;3.13;;
18867;SDS011;9563;49.240;9.088;2022-09-27T05:20:24;7.67;;;2.50;;
18867;SDS011;9563;49.240;9.088;2022-09-27T05:22:52;5.83;;;2.40;;
18867;SDS011;9563;49.240;9.088;2022-09-27T05:25:19;11.40;;;2.20;;
18867;SDS011;9563;49.240;9.088;2022-09-27T05:27:46;7.77;;;2.23;;
18867;SDS011;9563;49.240;9.088;2022-09-27T05:30:13;7.17;;;2.30;;
18867;SDS011;9563;49.240;9.088;2022-09-27T05:32:43;8.33;;;2.37;;
18867;SDS011;9563;49.240;9.088;2022-09-27T05:35:14;5.93;;;2.43;;
18867;SDS011;9563;49.240;9.088;2022-09-27T05:37:44;9.17;;;2.90;;
18867;SDS011;9563;49.240;9.088;2022-09-27T05:40:16;10.37;;;2.20;;
18867;SDS011;9563;49.240;9.088;2022-09-27T05:42:47;8.53;;;1.87;;
18867;SDS011;9563;49.240;9.088;2022-09-27T05:45:14;5.10;;;2.30;;
18867;SDS011;9563;49.240;9.088;2022-09-27T05:47:41;11.13;;;2.30;;
18867;SDS011;9563;49.240;9.088;2022-09-27T05:50:08;6.77;;;2.20;;
18867;SDS011;9563;49.240;9.088;2022-09-27T05:52:35;3.57;;;2.13;;
18867;SDS011;9563;49.240;9.088;2022-09-27T05:55:04;5.57;;;2.03;;
18867;SDS011;9563;49.240;9.088;2022-09-27T05:57:31;6.87;;;2.20;;
18867;SDS011;9563;49.240;9.088;2022-09-27T05:59:59;8.50;;;2.13;;
18867;SDS011;9563;49.240;9.088;2022-09-27T06:02:26;3.43;;;1.70;;
18867;SDS011;9563;49.240;9.088;2022-09-27T06:04:53;6.73;;;1.90;;
18867;SDS011;9563;49.240;9.088;2022-09-27T06:07:21;4.77;;;1.50;;
18867;SDS011;9563;49.240;9.088;2022-09-27T06:09:47;4.43;;;1.60;;
18867;SDS011;9563;49.240;9.088;2022-09-27T06:12:16;5.17;;;1.33;;
18867;SDS011;9563;49.240;9.088;2022-09-27T06:14:44;3.47;;;1.40;;
18867;SDS011;9563;49.240;9.088;2022-09-27T06:17:12;3.53;;;1.43;;
18867;SDS011;9563;49.240;9.088;2022-09-27T06:19:38;3.37;;;1.33;;
18867;SDS011;9563;49.240;9.088;2022-09-27T06:22:06;5.13;;;1.40;;
18867;SDS011;9563;49.240;9.088;2022-09-27T06:24:33;3.90;;;1.47;;
18867;SDS011;9563;49.240;9.088;2022-09-27T06:27:00;4.73;;;1.40;;
18867;SDS011;9563;49.240;9.088;2022-09-27T06:29:28;4.93;;;1.50;;
18867;SDS011;9563;49.240;9.088;2022-09-27T06:31:59;6.33;;;1.80;;
18867;SDS011;9563;49.240;9.088;2022-09-27T06:34:26;6.03;;;1.60;;
18867;SDS011;9563;49.240;9.088;2022-09-27T06:36:53;3.70;;;1.53;;
18867;SDS011;9563;49.240;9.088;2022-09-27T06:39:21;7.97;;;2.33;;
18867;SDS011;9563;49.240;9.088;2022-09-27T06:41:51;6.77;;;1.87;;
18867;SDS011;9563;49.240;9.088;2022-09-27T06:44:21;5.33;;;2.07;;
18867;SDS011;9563;49.240;9.088;2022-09-27T06:46:51;2.20;;;1.57;;
18867;SDS011;9563;49.240;9.088;2022-09-27T06:49:19;7.87;;;1.63;;
18867;SDS011;9563;49.240;9.088;2022-09-27T06:51:47;3.17;;;1.87;;
18867;SDS011;9563;49.240;9.088;2022-09-27T06:54:14;4.87;;;1.77;;
18867;SDS011;9563;49.240;9.088;2022-09-27T06:56:41;4.00;;;1.57;;
18867;SDS011;9563;49.240;9.088;2022-09-27T06:59:09;8.10;;;2.57;;
18867;SDS011;9563;49.240;9.088;2022-09-27T07:01:55;7.27;;;2.23;;
18867;SDS011;9563;49.240;9.088;2022-09-27T07:04:22;7.37;;;1.80;;
18867;SDS011;9563;49.240;9.088;2022-09-27T07:06:49;6.70;;;1.67;;
18867;SDS011;9563;49.240;9.088;2022-09-27T07:09:17;5.03;;;2.30;;
18867;SDS011;9563;49.240;9.088;2022-09-27T07:11:44;5.20;;;2.03;;
18867;SDS011;9563;49.240;9.088;2022-09-27T07:14:12;3.93;;;1.80;;
18867;SDS011;9563;49.240;9.088;2022-09-27T07:16:40;6.03;;;1.53;;
18867;SDS011;9563;49.240;9.088;2022-09-27T07:19:09;4.67;;;1.90;;
18867;SDS011;9563;49.240;9.088;2022-09-27T07:21:38;3.77;;;1.80;;
18867;SDS011;9563;49.240;9.088;2022-09-27T07:24:05;4.53;;;1.63;;
18867;SDS011;9563;49.240;9.088;2022-09-27T07:26:32;4.57;;;1.20;;
18867;SDS011;9563;49.240;9.088;2022-09-27T07:28:59;3.37;;;1.43;;
18867;SDS011;9563;49.240;9.088;2022-09-27T07:31:26;3.73;;;1.70;;
18867;SDS011;9563;49.240;9.088;2022-09-27T07:33:54;2.07;;;1.60;;
18867;SDS011;9563;49.240;9.088;2022-09-27T07:36:22;5.73;;;1.70;;
18867;SDS011;9563;49.240;9.088;2022-09-27T07:38:50;4.87;;;1.50;;
18867;SDS011;9563;49.240;9.088;2022-09-27T07:41:17;6.17;;;1.57;;
18867;SDS011;9563;49.240;9.088;2022-09-27T07:43:44;6.10;;;1.57;;
18867;SDS011;9563;49.240;9.088;2022-09-27T07:46:11;5.70;;;1.83;;
18867;SDS011;9563;49.240;9.088;2022-09-27T07:48:38;7.10;;;1.47;;
18867;SDS011;9563;49.240;9.088;2022-09-27T07:51:05;4.63;;;1.30;;
18867;SDS011;9563;49.240;9.088;2022-09-27T07:53:36;2.53;;;1.33;;
18867;SDS011;9563;49.240;9.088;2022-09-27T07:56:04;6.77;;;1.50;;
18867;SDS011;9563;49.240;9.088;2022-09-27T07:58:31;3.93;;;1.20;;
18867;SDS011;9563;49.240;9.088;2022-09-27T08:00:59;1.83;;;1.23;;
18867;SDS011;9563;49.240;9.088;2022-09-27T08:03:26;2.47;;;1.17;;
18867;SDS011;9563;49.240;9.088;2022-09-27T08:05:55;3.73;;;1.60;;
18867;SDS011;9563;49.240;9.088;2022-09-27T08:08:22;4.00;;;1.50;;
18867;SDS011;9563;49.240;9.088;2022-09-27T08:10:51;6.43;;;1.10;;
18867;SDS011;9563;49.240;9.088;2022-09-27T08:13:18;2.27;;;1.20;;
18867;SDS011;9563;49.240;9.088;2022-09-27T08:15:45;2.50;;;1.17;;
18867;SDS011;9563;49.240;9.088;2022-09-27T08:18:12;3.33;;;1.27;;
18867;SDS011;9563;49.240;9.088;2022-09-27T08:20:40;2.10;;;1.10;;
18867;SDS011;9563;49.240;9.088;2022-09-27T08:23:07;4.73;;;1.37;;
18867;SDS011;9563;49.240;9.088;2022-09-27T08:25:34;5.77;;;1.20;;
18867;SDS011;9563;49.240;9.088;2022-09-27T08:28:03;4.77;;;1.60;;
18867;SDS011;9563;49.240;9.088;2022-09-27T08:30:30;5.10;;;1.30;;
18867;SDS011;9563;49.240;9.088;2022-09-27T08:32:58;2.77;;;1.43;;
18867;SDS011;9563;49.240;9.088;2022-09-27T08:35:27;6.83;;;1.30;;
18867;SDS011;9563;49.240;9.088;2022-09-27T08:37:58;6.53;;;1.23;;
18867;SDS011;9563;49.240;9.088;2022-09-27T08:40:28;2.03;;;1.03;;
18867;SDS011;9563;49.240;9.088;2022-09-27T08:43:08;2.93;;;1.00;;
18867;SDS011;9563;49.240;9.088;2022-09-27T08:45:45;4.03;;;1.10;;
18867;SDS011;9563;49.240;9.088;2022-09-27T08:48:23;3.93;;;1.20;;
18867;SDS011;9563;49.240;9.088;2022-09-27T08:50:52;3.93;;;1.20;;
18867;SDS011;9563;49.240;9.088;2022-09-27T08:53:22;2.40;;;1.13;;
18867;SDS011;9563;49.240;9.088;2022-09-27T08:55:53;1.30;;;1.10;;
18867;SDS011;9563;49.240;9.088;2022-09-27T08:58:25;2.33;;;1.00;;
18867;SDS011;9563;49.240;9.088;2022-09-27T09:00:54;3.10;;;1.03;;
18867;SDS011;9563;49.240;9.088;2022-09-27T09:03:23;3.33;;;1.00;;
18867;SDS011;9563;49.240;9.088;2022-09-27T09:05:59;1.53;;;1.10;;
18867;SDS011;9563;49.240;9.088;2022-09-27T09:08:34;3.30;;;1.30;;
18867;SDS011;9563;49.240;9.088;2022-09-27T09:11:12;5.57;;;1.37;;
18867;SDS011;9563;49.240;9.088;2022-09-27T09:16:52;5.63;;;1.10;;
18867;SDS011;9563;49.240;9.088;2022-09-27T09:19:33;1.77;;;1.23;;
18867;SDS011;9563;49.240;9.088;2022-09-27T09:22:13;4.10;;;1.00;;
18867;SDS011;9563;49.240;9.088;2022-09-27T09:25:00;3.70;;;1.10;;
18867;SDS011;9563;49.240;9.088;2022-09-27T09:27:49;3.90;;;1.30;;
18867;SDS011;9563;49.240;9.088;2022-09-27T09:30:29;3.30;;;1.40;;
18867;SDS011;9563;49.240;9.088;2022-09-27T09:33:10;5.57;;;1.50;;
18867;SDS011;9563;49.240;9.088;2022-09-27T09:35:48;2.97;;;1.20;;
18867;SDS011;9563;49.240;9.088;2022-09-27T09:38:23;2.57;;;1.40;;
18867;SDS011;9563;49.240;9.088;2022-09-27T09:40:59;3.17;;;1.40;;
18867;SDS011;9563;49.240;9.088;2022-09-27T09:43:31;6.18;;;1.58;;
18867;SDS011;9563;49.240;9.088;2022-09-27T09:46:06;6.28;;;1.27;;
18867;SDS011;9563;49.240;9.088;2022-09-27T09:48:38;3.00;;;1.20;;
18867;SDS011;9563;49.240;9.088;2022-09-27T09:51:10;7.55;;;1.67;;
18867;SDS011;9563;49.240;9.088;2022-09-27T09:53:43;3.22;;;1.58;;
18867;SDS011;9563;49.240;9.088;2022-09-27T09:56:16;2.70;;;1.42;;
18867;SDS011;9563;49.240;9.088;2022-09-27T09:58:50;3.85;;;1.52;;
18867;SDS011;9563;49.240;9.088;2022-09-27T10:01:25;7.32;;;1.65;;
18867;SDS011;9563;49.240;9.088;2022-09-27T10:03:53;5.97;;;1.60;;
18867;SDS011;9563;49.240;9.088;2022-09-27T10:06:21;6.20;;;2.20;;
18867;SDS011;9563;49.240;9.088;2022-09-27T10:08:49;5.38;;;1.50;;
18867;SDS011;9563;49.240;9.088;2022-09-27T10:11:19;5.60;;;1.63;;
18867;SDS011;9563;49.240;9.088;2022-09-27T10:13:48;2.00;;;1.30;;
18867;SDS011;9563;49.240;9.088;2022-09-27T10:16:16;8.30;;;1.57;;
18867;SDS011;9563;49.240;9.088;2022-09-27T10:18:47;9.23;;;1.53;;
18867;SDS011;9563;49.240;9.088;2022-09-27T10:21:18;3.73;;;1.60;;
18867;SDS011;9563;49.240;9.088;2022-09-27T10:24:01;3.43;;;1.50;;
18867;SDS011;9563;49.240;9.088;2022-09-27T10:26:31;7.00;;;1.70;;
18867;SDS011;9563;49.240;9.088;2022-09-27T10:29:12;5.73;;;1.90;;
18867;SDS011;9563;49.240;9.088;2022-09-27T10:31:41;3.17;;;1.70;;
18867;SDS011;9563;49.240;9.088;2022-09-27T10:34:18;2.80;;;2.03;;
18867;SDS011;9563;49.240;9.088;2022-09-27T10:37:00;3.33;;;1.90;;
18867;SDS011;9563;49.240;9.088;2022-09-27T10:39:43;7.07;;;2.40;;
18867;SDS011;9563;49.240;9.088;2022-09-27T10:42:20;9.60;;;2.50;;
18867;SDS011;9563;49.240;9.088;2022-09-27T10:44:47;4.80;;;2.25;;
18867;SDS011;9563;49.240;9.088;2022-09-27T10:47:16;7.93;;;2.70;;
18867;SDS011;9563;49.240;9.088;2022-09-27T10:49:48;7.80;;;2.90;;
18867;SDS011;9563;49.240;9.088;2022-09-27T10:52:18;4.23;;;2.40;;
18867;SDS011;9563;49.240;9.088;2022-09-27T10:54:53;7.43;;;2.77;;
18867;SDS011;9563;49.240;9.088;2022-09-27T10:57:21;11.30;;;2.13;;
18867;SDS011;9563;49.240;9.088;2022-09-27T10:59:51;5.70;;;1.10;;
18867;SDS011;9563;49.240;9.088;2022-09-27T11:02:21;3.93;;;0.90;;
18867;SDS011;9563;49.240;9.088;2022-09-27T11:05:06;2.47;;;1.17;;
18867;SDS011;9563;49.240;9.088;2022-09-27T11:07:45;3.97;;;1.27;;
18867;SDS011;9563;49.240;9.088;2022-09-27T11:10:19;5.63;;;1.30;;
18867;SDS011;9563;49.240;9.088;2022-09-27T11:13:06;6.30;;;1.60;;
18867;SDS011;9563;49.240;9.088;2022-09-27T11:15:39;7.80;;;2.00;;
18867;SDS011;9563;49.240;9.088;2022-09-27T11:18:19;3.57;;;1.43;;
18867;SDS011;9563;49.240;9.088;2022-09-27T11:20:57;5.93;;;1.47;;
18867;SDS011;9563;49.240;9.088;2022-09-27T11:23:41;2.87;;;1.30;;
18867;SDS011;9563;49.240;9.088;2022-09-27T11:26:23;3.83;;;1.37;;
18867;SDS011;9563;49.240;9.088;2022-09-27T11:29:01;2.47;;;0.90;;
18867;SDS011;9563;49.240;9.088;2022-09-27T11:31:39;2.67;;;0.83;;
18867;SDS011;9563;49.240;9.088;2022-09-27T11:34:27;4.73;;;1.00;;
18867;SDS011;9563;49.240;9.088;2022-09-27T11:39:57;4.73;;;1.87;;
18867;SDS011;9563;49.240;9.088;2022-09-27T11:42:39;1.83;;;1.10;;
18867;SDS011;9563;49.240;9.088;2022-09-27T11:45:35;3.43;;;1.30;;
18867;SDS011;9563;49.240;9.088;2022-09-27T11:48:17;4.33;;;1.30;;
18867;SDS011;9563;49.240;9.088;2022-09-27T11:50:59;3.53;;;1.30;;
18867;SDS011;9563;49.240;9.088;2022-09-27T11:56:29;6.87;;;1.50;;
18867;SDS011;9563;49.240;9.088;2022-09-27T11:59:14;2.40;;;1.33;;
18867;SDS011;9563;49.240;9.088;2022-09-27T12:01:58;4.00;;;1.77;;
18867;SDS011;9563;49.240;9.088;2022-09-27T12:04:40;1.97;;;1.03;;
18867;SDS011;9563;49.240;9.088;2022-09-27T12:07:18;1.07;;;0.77;;
18867;SDS011;9563;49.240;9.088;2022-09-27T12:09:54;0.70;;;0.60;;
18867;SDS011;9563;49.240;9.088;2022-09-27T12:12:27;1.70;;;0.77;;
18867;SDS011;9563;49.240;9.088;2022-09-27T12:14:57;0.77;;;0.50;;
18867;SDS011;9563;49.240;9.088;2022-09-27T12:17:28;1.30;;;0.40;;
18867;SDS011;9563;49.240;9.088;2022-09-27T12:20:01;0.90;;;0.40;;
18867;SDS011;9563;49.240;9.088;2022-09-27T12:22:31;0.50;;;0.50;;
18867;SDS011;9563;49.240;9.088;2022-09-27T12:25:05;0.40;;;0.40;;
18867;SDS011;9563;49.240;9.088;2022-09-27T12:27:39;1.50;;;0.60;;
18867;SDS011;9563;49.240;9.088;2022-09-27T12:30:12;1.20;;;0.50;;
18867;SDS011;9563;49.240;9.088;2022-09-27T12:32:42;0.73;;;0.40;;
18867;SDS011;9563;49.240;9.088;2022-09-27T12:35:16;0.93;;;0.50;;
18867;SDS011;9563;49.240;9.088;2022-09-27T12:37:47;1.23;;;0.60;;
18867;SDS011;9563;49.240;9.088;2022-09-27T12:40:20;1.20;;;0.60;;
18867;SDS011;9563;49.240;9.088;2022-09-27T12:42:51;1.17;;;0.57;;
18867;SDS011;9563;49.240;9.088;2022-09-27T12:45:25;1.00;;;0.40;;
18867;SDS011;9563;49.240;9.088;2022-09-27T12:48:03;2.77;;;0.57;;
18867;SDS011;9563;49.240;9.088;2022-09-27T12:50:38;0.70;;;0.50;;
18867;SDS011;9563;49.240;9.088;2022-09-27T12:53:11;2.03;;;0.40;;
18867;SDS011;9563;49.240;9.088;2022-09-27T12:55:53;1.27;;;0.60;;
18867;SDS011;9563;49.240;9.088;2022-09-27T12:58:39;3.67;;;0.73;;
18867;SDS011;9563;49.240;9.088;2022-09-27T13:01:39;2.92;;;0.75;;
18867;SDS011;9563;49.240;9.088;2022-09-27T13:04:22;7.18;;;1.17;;
18867;SDS011;9563;49.240;9.088;2022-09-27T13:07:02;2.28;;;0.80;;
18867;SDS011;9563;49.240;9.088;2022-09-27T13:09:44;1.30;;;0.65;;
18867;SDS011;9563;49.240;9.088;2022-09-27T13:12:27;0.63;;;0.50;;
18867;SDS011;9563;49.240;9.088;2022-09-27T13:14:59;1.20;;;0.77;;
18867;SDS011;9563;49.240;9.088;2022-09-27T13:17:50;2.00;;;0.70;;
18867;SDS011;9563;49.240;9.088;2022-09-27T13:26:45;0.80;;;0.60;;
18867;SDS011;9563;49.240;9.088;2022-09-27T13:29:23;1.97;;;0.83;;
18867;SDS011;9563;49.240;9.088;2022-09-27T13:32:07;0.60;;;0.60;;
18867;SDS011;9563;49.240;9.088;2022-09-27T13:34:41;2.00;;;0.70;;
18867;SDS011;9563;49.240;9.088;2022-09-27T13:40:09;2.33;;;0.73;;
18867;SDS011;9563;49.240;9.088;2022-09-27T13:42:54;3.90;;;0.90;;
18867;SDS011;9563;49.240;9.088;2022-09-27T13:45:49;2.70;;;0.80;;
18867;SDS011;9563;49.240;9.088;2022-09-27T13:48:21;1.57;;;0.90;;
18867;SDS011;9563;49.240;9.088;2022-09-27T13:50:53;2.33;;;0.70;;
18867;SDS011;9563;49.240;9.088;2022-09-27T13:53:26;2.40;;;0.97;;
18867;SDS011;9563;49.240;9.088;2022-09-27T13:55:56;5.23;;;1.10;;
18867;SDS011;9563;49.240;9.088;2022-09-27T13:58:31;4.10;;;1.30;;
18867;SDS011;9563;49.240;9.088;2022-09-27T14:01:13;2.47;;;0.83;;
18867;SDS011;9563;49.240;9.088;2022-09-27T14:03:54;2.53;;;1.00;;
18867;SDS011;9563;49.240;9.088;2022-09-27T14:06:24;1.47;;;0.80;;
18867;SDS011;9563;49.240;9.088;2022-09-27T14:08:55;4.73;;;1.10;;
18867;SDS011;9563;49.240;9.088;2022-09-27T14:11:25;2.57;;;0.70;;
18867;SDS011;9563;49.240;9.088;2022-09-27T14:13:54;3.63;;;1.00;;
18867;SDS011;9563;49.240;9.088;2022-09-27T14:16:25;3.17;;;1.03;;
18867;SDS011;9563;49.240;9.088;2022-09-27T14:18:57;2.13;;;0.73;;
18867;SDS011;9563;49.240;9.088;2022-09-27T14:21:28;1.00;;;0.60;;
18867;SDS011;9563;49.240;9.088;2022-09-27T14:26:45;4.33;;;0.80;;
18867;SDS011;9563;49.240;9.088;2022-09-27T14:29:14;1.27;;;0.70;;
18867;SDS011;9563;49.240;9.088;2022-09-27T14:31:43;1.90;;;1.00;;
18867;SDS011;9563;49.240;9.088;2022-09-27T14:34:12;5.03;;;1.00;;
18867;SDS011;9563;49.240;9.088;2022-09-27T14:36:39;2.63;;;1.10;;
18867;SDS011;9563;49.240;9.088;2022-09-27T14:39:27;2.63;;;0.93;;
18867;SDS011;9563;49.240;9.088;2022-09-27T14:41:56;2.13;;;0.63;;
18867;SDS011;9563;49.240;9.088;2022-09-27T14:44:23;2.33;;;0.80;;
18867;SDS011;9563;49.240;9.088;2022-09-27T14:49:35;1.60;;;0.90;;
18867;SDS011;9563;49.240;9.088;2022-09-27T14:52:13;4.50;;;0.90;;
18867;SDS011;9563;49.240;9.088;2022-09-27T14:54:53;1.43;;;0.63;;
18867;SDS011;9563;49.240;9.088;2022-09-27T14:57:25;3.40;;;0.70;;
18867;SDS011;9563;49.240;9.088;2022-09-27T14:59:54;2.17;;;0.80;;
18867;SDS011;9563;49.240;9.088;2022-09-27T15:02:25;1.90;;;0.73;;
18867;SDS011;9563;49.240;9.088;2022-09-27T15:04:52;2.67;;;1.00;;
18867;SDS011;9563;49.240;9.088;2022-09-27T15:07:20;6.67;;;0.80;;
18867;SDS011;9563;49.240;9.088;2022-09-27T15:09:47;2.33;;;0.83;;
18867;SDS011;9563;49.240;9.088;2022-09-27T15:12:19;3.57;;;0.57;;
18867;SDS011;9563;49.240;9.088;2022-09-27T15:14:50;1.13;;;0.70;;
18867;SDS011;9563;49.240;9.088;2022-09-27T15:17:22;1.70;;;0.60;;
18867;SDS011;9563;49.240;9.088;2022-09-27T15:20:01;1.60;;;0.90;;
18867;SDS011;9563;49.240;9.088;2022-09-27T15:22:43;1.40;;;0.60;;
18867;SDS011;9563;49.240;9.088;2022-09-27T15:25:14;1.63;;;0.53;;
18867;SDS011;9563;49.240;9.088;2022-09-27T15:27:48;3.50;;;0.60;;
18867;SDS011;9563;49.240;9.088;2022-09-27T15:30:18;0.60;;;0.50;;
18867;SDS011;9563;49.240;9.088;2022-09-27T15:32:51;1.07;;;0.50;;
18867;SDS011;9563;49.240;9.088;2022-09-27T15:35:23;0.50;;;0.50;;
18867;SDS011;9563;49.240;9.088;2022-09-27T15:38:06;1.77;;;0.60;;
18867;SDS011;9563;49.240;9.088;2022-09-27T15:43:34;0.57;;;0.57;;
18867;SDS011;9563;49.240;9.088;2022-09-27T15:46:05;1.03;;;0.57;;
18867;SDS011;9563;49.240;9.088;2022-09-27T15:49:26;0.90;;;0.70;;
18867;SDS011;9563;49.240;9.088;2022-09-27T15:52:00;2.77;;;0.77;;
18867;SDS011;9563;49.240;9.088;2022-09-27T15:54:29;3.47;;;0.90;;
18867;SDS011;9563;49.240;9.088;2022-09-27T15:57:00;2.90;;;0.93;;
18867;SDS011;9563;49.240;9.088;2022-09-27T15:59:30;2.43;;;0.70;;
18867;SDS011;9563;49.240;9.088;2022-09-27T16:01:59;1.87;;;0.70;;